createdAt,value
2017-07-10T00:00:40.603Z,6.80
2017-07-10T00:03:10.058Z,6.07
2017-07-10T00:05:39.539Z,6.80
2017-07-10T00:08:08.994Z,6.20
2017-07-10T00:10:38.464Z,5.80
2017-07-10T00:13:07.901Z,5.67
2017-07-10T00:15:37.361Z,5.07
2017-07-10T00:18:06.817Z,5.00
2017-07-10T00:20:36.257Z,4.93
2017-07-10T00:23:05.706Z,6.17
2017-07-10T00:25:35.157Z,5.83
2017-07-10T00:28:04.617Z,5.50
2017-07-10T00:30:34.078Z,5.97
2017-07-10T00:33:03.552Z,6.20
2017-07-10T00:35:33.025Z,6.10
2017-07-10T00:38:02.467Z,6.50
2017-07-10T00:40:31.919Z,6.50
2017-07-10T00:43:01.406Z,5.77
2017-07-10T00:45:31.122Z,6.27
2017-07-10T00:48:00.586Z,6.20
2017-07-10T00:50:30.033Z,6.50
2017-07-10T00:52:59.301Z,7.10
2017-07-10T00:55:28.759Z,6.10
2017-07-10T00:57:58.334Z,6.13
2017-07-10T01:00:27.774Z,6.23
2017-07-10T01:02:57.079Z,7.13
2017-07-10T01:05:26.524Z,5.70
2017-07-10T01:07:55.977Z,6.10
2017-07-10T01:10:25.257Z,6.53
2017-07-10T01:12:54.724Z,6.70
2017-07-10T01:15:24.159Z,6.87
2017-07-10T01:17:53.645Z,6.40
2017-07-10T01:20:23.100Z,7.10
2017-07-10T01:22:52.548Z,8.20
2017-07-10T01:25:22.007Z,7.20
2017-07-10T01:27:51.473Z,6.60
2017-07-10T01:30:20.918Z,6.87
2017-07-10T01:32:50.386Z,6.90
2017-07-10T01:35:19.850Z,6.87
2017-07-10T01:37:49.122Z,6.27
2017-07-10T01:40:18.571Z,7.60
2017-07-10T01:42:48.028Z,7.60
2017-07-10T01:45:17.489Z,7.07
2017-07-10T01:47:46.766Z,7.37
2017-07-10T01:50:16.220Z,8.43
2017-07-10T01:52:45.321Z,8.43
2017-07-10T01:55:14.782Z,8.63
2017-07-10T01:57:44.234Z,8.43
2017-07-10T02:00:14.413Z,7.80
2017-07-10T02:02:43.715Z,7.80
2017-07-10T02:05:12.812Z,7.90
2017-07-10T02:07:42.276Z,7.60
2017-07-10T02:10:11.712Z,7.13
2017-07-10T02:12:41.177Z,6.13
2017-07-10T02:15:10.629Z,6.57
2017-07-10T02:17:40.090Z,6.10
2017-07-10T02:20:09.560Z,6.93
2017-07-10T02:22:39.119Z,5.47
2017-07-10T02:25:08.578Z,6.30
2017-07-10T02:27:38.034Z,5.27
2017-07-10T02:30:07.485Z,7.13
2017-07-10T02:32:36.934Z,6.67
2017-07-10T02:35:06.392Z,7.53
2017-07-10T02:37:35.852Z,6.83
2017-07-10T02:40:05.307Z,6.30
2017-07-10T02:42:34.756Z,6.20
2017-07-10T02:45:04.021Z,6.63
2017-07-10T02:47:33.505Z,6.20
2017-07-10T02:50:02.616Z,7.00
2017-07-10T02:52:32.061Z,6.63
2017-07-10T02:55:01.529Z,7.07
2017-07-10T02:57:30.980Z,6.20
2017-07-10T03:00:00.455Z,7.20
2017-07-10T03:02:29.914Z,6.30
2017-07-10T03:04:59.359Z,5.83
2017-07-10T03:07:28.817Z,6.23
2017-07-10T03:09:58.323Z,5.47
2017-07-10T03:12:27.765Z,5.33
2017-07-10T03:14:57.224Z,6.27
2017-07-10T03:17:26.666Z,6.30
2017-07-10T03:19:56.113Z,5.70
2017-07-10T03:22:25.571Z,5.60
2017-07-10T03:24:55.022Z,5.47
2017-07-10T03:27:24.491Z,6.00
2017-07-10T03:29:53.600Z,6.00
2017-07-10T03:32:22.739Z,6.27
2017-07-10T03:34:52.184Z,5.73
2017-07-10T03:37:21.316Z,6.33
2017-07-10T03:39:50.753Z,5.27
2017-07-10T03:42:20.227Z,5.20
2017-07-10T03:44:49.685Z,5.40
2017-07-10T03:47:19.141Z,4.93
2017-07-10T03:49:48.589Z,5.20
2017-07-10T03:52:18.047Z,4.60
2017-07-10T03:54:47.506Z,6.73
2017-07-10T03:57:16.985Z,5.97
2017-07-10T03:59:46.435Z,4.90
2017-07-10T04:02:15.885Z,5.80
2017-07-10T04:04:45.347Z,4.43
2017-07-10T04:07:15.051Z,4.27
2017-07-10T04:09:44.526Z,4.40
2017-07-10T04:12:13.966Z,4.10
2017-07-10T04:14:43.424Z,5.27
2017-07-10T04:17:12.870Z,5.43
2017-07-10T04:19:42.326Z,4.53
2017-07-10T04:22:11.775Z,5.50
2017-07-10T04:24:41.237Z,3.90
2017-07-10T04:27:10.685Z,5.00
2017-07-10T04:29:40.148Z,4.17
2017-07-10T04:32:09.598Z,4.30
2017-07-10T04:34:38.859Z,4.47
2017-07-10T04:37:08.604Z,4.17
2017-07-10T04:39:38.386Z,3.80
2017-07-10T04:42:08.140Z,4.50
2017-07-10T04:44:37.606Z,4.70
2017-07-10T04:47:07.081Z,4.53
2017-07-10T04:49:36.553Z,4.50
2017-07-10T04:52:06.007Z,4.20
2017-07-10T04:54:35.470Z,4.80
2017-07-10T04:57:04.958Z,3.87
2017-07-10T04:59:34.402Z,3.73
2017-07-10T05:02:03.845Z,4.50
2017-07-10T05:04:33.311Z,4.20
2017-07-10T05:07:02.764Z,14.03
2017-07-10T05:09:32.237Z,3.50
2017-07-10T05:12:01.752Z,4.40
2017-07-10T05:14:31.205Z,5.90
2017-07-10T05:17:00.678Z,3.90
2017-07-10T05:19:30.146Z,3.70
2017-07-10T05:21:59.611Z,4.20
2017-07-10T05:24:29.049Z,3.87
2017-07-10T05:26:58.554Z,3.70
2017-07-10T05:29:27.980Z,4.10
2017-07-10T05:31:57.437Z,3.83
2017-07-10T05:34:26.893Z,3.83
2017-07-10T05:36:56.333Z,4.33
2017-07-10T05:39:25.794Z,3.47
2017-07-10T05:41:55.249Z,4.10
2017-07-10T05:44:24.693Z,4.00
2017-07-10T05:46:54.166Z,3.70
2017-07-10T05:49:23.627Z,3.83
2017-07-10T05:51:53.070Z,3.30
2017-07-10T05:54:22.517Z,3.53
2017-07-10T05:56:51.986Z,3.20
2017-07-10T05:59:21.422Z,3.17
2017-07-10T06:01:50.885Z,3.70
2017-07-10T06:04:20.338Z,3.20
2017-07-10T06:06:49.790Z,3.23
2017-07-10T06:09:19.234Z,2.57
2017-07-10T06:11:48.691Z,3.20
2017-07-10T06:14:18.138Z,2.50
2017-07-10T06:16:47.606Z,2.70
2017-07-10T06:19:17.052Z,3.10
2017-07-10T06:21:46.508Z,3.90
2017-07-10T06:24:15.963Z,3.17
2017-07-10T06:26:47.054Z,3.00
2017-07-10T06:29:16.515Z,2.50
2017-07-10T06:31:45.953Z,2.90
2017-07-10T06:34:15.405Z,2.53
2017-07-10T06:36:44.913Z,2.60
2017-07-10T06:39:14.178Z,2.30
2017-07-10T06:41:43.644Z,2.60
2017-07-10T06:44:13.190Z,2.50
2017-07-10T06:46:42.657Z,3.20
2017-07-10T06:49:11.912Z,2.80
2017-07-10T06:51:41.363Z,2.83
2017-07-10T06:54:10.810Z,2.93
2017-07-10T06:56:40.251Z,2.30
2017-07-10T06:59:09.708Z,2.93
2017-07-10T07:01:39.154Z,2.73
2017-07-10T07:04:08.619Z,3.37
2017-07-10T07:06:38.059Z,2.90
2017-07-10T07:09:07.530Z,3.33
2017-07-10T07:11:37.001Z,2.77
2017-07-10T07:14:06.474Z,3.27
2017-07-10T07:16:35.930Z,2.90
2017-07-10T07:19:05.380Z,2.60
2017-07-10T07:21:34.825Z,2.87
2017-07-10T07:24:04.281Z,2.90
2017-07-10T07:26:33.728Z,2.97
2017-07-10T07:29:03.175Z,3.27
2017-07-10T07:31:32.700Z,2.77
2017-07-10T07:34:02.129Z,3.63
2017-07-10T07:36:31.592Z,2.83
2017-07-10T07:39:01.034Z,2.80
2017-07-10T07:41:30.482Z,3.00
2017-07-10T07:43:59.937Z,3.20
2017-07-10T07:46:29.390Z,2.97
2017-07-10T07:48:58.846Z,3.40
2017-07-10T07:51:28.295Z,2.67
2017-07-10T07:53:57.743Z,2.43
2017-07-10T07:56:27.193Z,2.70
2017-07-10T07:58:57.450Z,2.60
2017-07-10T08:01:26.916Z,2.77
2017-07-10T08:03:56.402Z,3.07
2017-07-10T08:06:25.864Z,3.40
2017-07-10T08:08:55.288Z,2.83
2017-07-10T08:11:24.749Z,3.03
2017-07-10T08:13:54.207Z,3.00
2017-07-10T08:16:23.655Z,3.00
2017-07-10T08:18:53.109Z,2.40
2017-07-10T08:21:22.540Z,2.70
2017-07-10T08:23:51.977Z,3.70
2017-07-10T08:26:21.437Z,5.00
2017-07-10T08:28:50.893Z,4.63
2017-07-10T08:31:20.327Z,4.63
2017-07-10T08:33:49.775Z,4.93
2017-07-10T08:36:19.406Z,5.07
2017-07-10T08:38:48.951Z,3.90
2017-07-10T08:41:18.401Z,4.80
2017-07-10T08:43:47.850Z,4.60
2017-07-10T08:46:17.294Z,5.10
2017-07-10T08:48:46.767Z,4.83
2017-07-10T08:51:16.215Z,4.80
2017-07-10T08:53:45.671Z,4.80
2017-07-10T08:56:15.120Z,5.10
2017-07-10T08:58:44.585Z,6.10
2017-07-10T09:01:14.026Z,6.27
2017-07-10T09:03:43.157Z,7.10
2017-07-10T09:06:12.628Z,6.60
2017-07-10T09:08:42.072Z,8.60
2017-07-10T09:11:11.547Z,8.90
2017-07-10T09:13:40.993Z,6.67
2017-07-10T09:16:10.457Z,6.73
2017-07-10T09:18:39.926Z,6.53
2017-07-10T09:21:09.400Z,7.50
2017-07-10T09:23:38.848Z,8.10
2017-07-10T09:26:08.309Z,6.00
2017-07-10T09:28:37.773Z,6.33
2017-07-10T09:31:07.225Z,4.57
2017-07-10T09:33:36.681Z,4.20
2017-07-10T09:36:06.152Z,3.40
2017-07-10T09:38:35.601Z,3.33
2017-07-10T09:41:05.064Z,3.50
2017-07-10T09:43:34.526Z,3.77
2017-07-10T09:46:03.980Z,4.13
2017-07-10T09:48:33.441Z,3.30
2017-07-10T09:51:02.892Z,3.40
2017-07-10T09:53:33.257Z,3.07
2017-07-10T09:56:02.895Z,2.90
2017-07-10T09:58:32.325Z,2.80
2017-07-10T10:01:01.785Z,3.60
2017-07-10T10:03:31.246Z,3.50
2017-07-10T10:06:00.690Z,3.23
2017-07-10T10:08:30.161Z,3.97
2017-07-10T10:10:59.602Z,2.80
2017-07-10T10:13:29.785Z,3.43
2017-07-10T10:15:59.246Z,2.90
2017-07-10T10:18:28.693Z,3.50
2017-07-10T10:20:57.828Z,3.77
2017-07-10T10:23:27.257Z,3.50
2017-07-10T10:25:56.713Z,3.60
2017-07-10T10:28:26.158Z,3.40
2017-07-10T10:30:55.607Z,4.17
2017-07-10T10:33:25.054Z,3.97
2017-07-10T10:35:54.505Z,4.60
2017-07-10T10:38:23.962Z,4.57
2017-07-10T10:40:53.421Z,4.57
2017-07-10T10:43:22.889Z,4.87
2017-07-10T10:45:52.342Z,5.67
2017-07-10T10:48:21.794Z,4.63
2017-07-10T10:50:51.247Z,4.50
2017-07-10T10:53:20.702Z,4.43
2017-07-10T10:55:50.152Z,4.47
2017-07-10T10:58:19.603Z,4.27
2017-07-10T11:00:49.072Z,4.07
2017-07-10T11:03:18.538Z,4.00
2017-07-10T11:05:48.001Z,3.67
2017-07-10T11:08:17.489Z,3.80
2017-07-10T11:10:46.940Z,3.20
2017-07-10T11:13:16.400Z,2.43
2017-07-10T11:15:46.149Z,3.40
2017-07-10T11:18:15.401Z,3.00
2017-07-10T11:20:44.866Z,3.00
2017-07-10T11:23:14.321Z,3.03
2017-07-10T11:25:43.765Z,2.37
2017-07-10T11:28:13.206Z,3.10
2017-07-10T11:30:42.657Z,2.90
2017-07-10T11:33:12.122Z,3.40
2017-07-10T11:35:41.566Z,3.63
2017-07-10T11:38:11.016Z,2.40
2017-07-10T11:40:40.487Z,2.80
2017-07-10T11:43:09.925Z,3.43
2017-07-10T11:45:39.377Z,3.10
2017-07-10T11:48:08.825Z,2.43
2017-07-10T11:50:38.275Z,3.03
2017-07-10T11:53:07.812Z,2.87
2017-07-10T11:55:37.249Z,4.07
2017-07-10T11:58:06.695Z,3.13
2017-07-10T12:00:36.144Z,2.43
2017-07-10T12:03:05.681Z,3.23
2017-07-10T12:05:35.121Z,3.07
2017-07-10T12:08:04.566Z,2.90
2017-07-10T12:10:34.019Z,3.00
2017-07-10T12:13:03.278Z,3.60
2017-07-10T12:15:32.989Z,3.43
2017-07-10T12:18:02.445Z,3.00
2017-07-10T12:20:31.901Z,2.97
2017-07-10T12:23:01.353Z,2.93
2017-07-10T12:25:30.803Z,2.73
2017-07-10T12:28:00.274Z,3.90
2017-07-10T12:30:29.728Z,3.43
2017-07-10T12:32:59.194Z,3.00
2017-07-10T12:35:28.638Z,2.80
2017-07-10T12:37:58.094Z,3.27
2017-07-10T12:40:27.525Z,3.00
2017-07-10T12:42:56.978Z,2.50
2017-07-10T12:45:26.449Z,3.33
2017-07-10T12:47:55.995Z,3.30
2017-07-10T12:50:25.453Z,3.20
2017-07-10T12:52:54.906Z,2.67
2017-07-10T12:55:24.338Z,2.60
2017-07-10T12:57:53.799Z,2.23
2017-07-10T13:00:23.242Z,2.50
2017-07-10T13:02:52.698Z,2.90
2017-07-10T13:05:22.144Z,2.50
2017-07-10T13:07:51.625Z,2.40
2017-07-10T13:10:21.117Z,2.70
2017-07-10T13:12:51.421Z,2.63
2017-07-10T13:15:20.682Z,3.03
2017-07-10T13:17:50.142Z,2.90
2017-07-10T13:20:19.602Z,3.20
2017-07-10T13:22:49.073Z,2.80
2017-07-10T13:25:18.527Z,3.37
2017-07-10T13:27:47.981Z,2.37
2017-07-10T13:30:17.449Z,2.77
2017-07-10T13:32:46.901Z,3.50
2017-07-10T13:35:16.348Z,2.83
2017-07-10T13:37:45.805Z,3.43
2017-07-10T13:40:15.250Z,2.63
2017-07-10T13:42:44.715Z,2.90
2017-07-10T13:45:14.227Z,2.57
2017-07-10T13:47:43.684Z,2.43
2017-07-10T13:50:13.141Z,2.63
2017-07-10T13:52:42.603Z,2.70
2017-07-10T13:55:12.090Z,2.63
2017-07-10T13:57:41.521Z,2.30
2017-07-10T14:00:10.968Z,2.63
2017-07-10T14:02:40.421Z,2.87
2017-07-10T14:05:09.870Z,3.37
2017-07-10T14:07:39.313Z,3.17
2017-07-10T14:10:08.770Z,3.00
2017-07-10T14:12:38.230Z,2.90
2017-07-10T14:15:07.682Z,2.53
2017-07-10T14:17:36.776Z,3.20
2017-07-10T14:20:06.241Z,2.83
2017-07-10T14:22:35.701Z,3.17
2017-07-10T14:25:05.166Z,3.67
2017-07-10T14:27:34.625Z,3.20
2017-07-10T14:30:04.187Z,3.30
2017-07-10T14:32:33.658Z,2.83
2017-07-10T14:35:03.114Z,3.20
2017-07-10T14:37:32.567Z,2.97
2017-07-10T14:40:02.021Z,2.40
2017-07-10T14:42:31.477Z,2.87
2017-07-10T14:45:00.935Z,2.90
2017-07-10T14:47:30.434Z,3.13
2017-07-10T14:49:59.878Z,3.97
2017-07-10T14:52:29.321Z,2.50
2017-07-10T14:54:58.785Z,3.00
2017-07-10T14:57:28.217Z,2.43
2017-07-10T14:59:57.674Z,3.07
2017-07-10T15:02:27.137Z,3.00
2017-07-10T15:04:56.627Z,3.20
2017-07-10T15:07:26.107Z,2.50
2017-07-10T15:09:55.399Z,3.10
2017-07-10T15:12:24.866Z,3.03
2017-07-10T15:14:54.594Z,2.53
2017-07-10T15:17:25.151Z,2.33
2017-07-10T15:19:54.792Z,2.70
2017-07-10T15:22:24.317Z,2.73
2017-07-10T15:24:54.067Z,2.60
2017-07-10T15:27:23.515Z,2.67
2017-07-10T15:29:53.032Z,3.23
2017-07-10T15:32:22.502Z,2.53
2017-07-10T15:34:52.006Z,2.77
2017-07-10T15:37:21.261Z,2.70
2017-07-10T15:39:50.717Z,2.57
2017-07-10T15:42:20.241Z,2.40
2017-07-10T15:44:49.674Z,2.30
2017-07-10T15:47:19.124Z,3.67
2017-07-10T15:49:48.567Z,2.40
2017-07-10T15:52:18.069Z,2.30
2017-07-10T15:54:47.510Z,2.70
2017-07-10T15:57:16.974Z,2.30
2017-07-10T15:59:46.501Z,3.20
2017-07-10T16:02:15.946Z,2.60
2017-07-10T16:04:45.397Z,2.40
2017-07-10T16:07:14.870Z,3.40
2017-07-10T16:09:44.125Z,2.83
2017-07-10T16:12:13.635Z,2.50
2017-07-10T16:14:43.077Z,2.90
2017-07-10T16:17:12.531Z,2.77
2017-07-10T16:19:41.986Z,3.27
2017-07-10T16:22:11.437Z,2.60
2017-07-10T16:24:40.885Z,2.93
2017-07-10T16:27:10.327Z,3.70
2017-07-10T16:29:39.918Z,2.70
2017-07-10T16:32:09.409Z,3.30
2017-07-10T16:34:38.837Z,3.23
2017-07-10T16:37:08.369Z,2.80
2017-07-10T16:39:37.808Z,2.50
2017-07-10T16:42:07.266Z,2.40
2017-07-10T16:44:36.726Z,2.43
2017-07-10T16:47:06.203Z,2.70
2017-07-10T16:49:35.627Z,2.30
2017-07-10T16:52:05.094Z,2.60
2017-07-10T16:54:34.538Z,3.00
2017-07-10T16:57:03.991Z,2.37
2017-07-10T16:59:33.458Z,2.20
2017-07-10T17:02:02.915Z,2.30
2017-07-10T17:04:32.371Z,2.83
2017-07-10T17:07:01.821Z,2.40
2017-07-10T17:09:31.283Z,2.83
2017-07-10T17:12:00.727Z,2.83
2017-07-10T17:14:30.157Z,2.40
2017-07-10T17:16:59.619Z,2.43
2017-07-10T17:19:29.077Z,2.50
2017-07-10T17:21:58.518Z,2.80
2017-07-10T17:24:27.953Z,2.13
2017-07-10T17:26:57.407Z,2.33
2017-07-10T17:29:26.863Z,2.10
2017-07-10T17:31:56.340Z,2.37
2017-07-10T17:34:25.782Z,2.17
2017-07-10T17:36:55.239Z,2.37
2017-07-10T17:39:24.691Z,2.10
2017-07-10T17:41:54.149Z,2.23
2017-07-10T17:44:23.602Z,2.13
2017-07-10T17:46:53.064Z,2.27
2017-07-10T17:49:22.509Z,2.77
2017-07-10T17:51:51.966Z,2.40
2017-07-10T17:54:21.426Z,2.30
2017-07-10T17:56:50.867Z,2.40
2017-07-10T17:59:20.332Z,2.50
2017-07-10T18:01:49.776Z,1.87
2017-07-10T18:04:19.223Z,2.00
2017-07-10T18:06:48.679Z,2.20
2017-07-10T18:09:18.141Z,2.30
2017-07-10T18:11:48.433Z,2.20
2017-07-10T18:14:17.895Z,2.60
2017-07-10T18:16:47.349Z,2.60
2017-07-10T18:19:16.846Z,2.20
2017-07-10T18:21:46.282Z,1.80
2017-07-10T18:24:15.804Z,2.40
2017-07-10T18:26:45.269Z,2.30
2017-07-10T18:29:14.714Z,2.50
2017-07-10T18:31:44.171Z,2.20
2017-07-10T18:34:13.644Z,2.50
2017-07-10T18:36:43.105Z,2.60
2017-07-10T18:39:12.554Z,2.40
2017-07-10T18:41:42.008Z,3.50
2017-07-10T18:44:11.482Z,3.70
2017-07-10T18:46:41.167Z,2.93
2017-07-10T18:49:10.650Z,2.93
2017-07-10T18:51:40.903Z,3.13
2017-07-10T18:54:10.350Z,3.10
2017-07-10T18:56:39.857Z,3.53
2017-07-10T18:59:09.295Z,3.93
2017-07-10T19:01:38.755Z,3.80
2017-07-10T19:04:08.198Z,3.97
2017-07-10T19:06:37.645Z,4.47
2017-07-10T19:09:07.186Z,4.80
2017-07-10T19:11:36.619Z,5.50
2017-07-10T19:14:06.119Z,4.70
2017-07-10T19:16:35.577Z,3.40
2017-07-10T19:19:05.015Z,3.20
2017-07-10T19:21:34.483Z,5.07
2017-07-10T19:24:03.959Z,3.90
2017-07-10T19:26:33.418Z,3.57
2017-07-10T19:29:02.913Z,3.27
2017-07-10T19:31:32.359Z,3.87
2017-07-10T19:34:01.813Z,4.40
2017-07-10T19:36:31.272Z,8.90
2017-07-10T19:39:00.936Z,4.67
2017-07-10T19:41:30.402Z,2.87
2017-07-10T19:43:59.862Z,3.40
2017-07-10T19:46:29.403Z,4.23
2017-07-10T19:48:58.843Z,3.13
2017-07-10T19:51:28.716Z,3.77
2017-07-10T19:53:58.397Z,3.73
2017-07-10T19:56:27.884Z,4.80
2017-07-10T19:58:57.427Z,4.20
2017-07-10T20:01:26.701Z,4.00
2017-07-10T20:03:56.333Z,4.30
2017-07-10T20:06:25.906Z,4.87
2017-07-10T20:08:55.598Z,4.30
2017-07-10T20:11:25.216Z,3.60
2017-07-10T20:13:54.668Z,4.40
2017-07-10T20:16:24.130Z,3.83
2017-07-10T20:18:54.525Z,4.13
2017-07-10T20:21:24.679Z,6.60
2017-07-10T20:23:54.489Z,6.00
2017-07-10T20:26:24.132Z,6.00
2017-07-10T20:28:53.438Z,6.90
2017-07-10T20:31:23.023Z,5.77
2017-07-10T20:33:52.526Z,7.10
2017-07-10T20:36:22.077Z,8.27
2017-07-10T20:38:51.545Z,6.90
2017-07-10T20:41:21.357Z,8.53
2017-07-10T20:43:51.085Z,8.17
2017-07-10T20:46:20.831Z,8.20
2017-07-10T20:48:50.686Z,8.80
2017-07-10T20:51:20.337Z,7.90
2017-07-10T20:53:50.073Z,8.90
2017-07-10T20:56:19.905Z,9.10
2017-07-10T20:58:49.594Z,8.77
2017-07-10T21:01:19.060Z,10.73
2017-07-10T21:03:48.995Z,9.77
2017-07-10T21:06:18.958Z,9.50
2017-07-10T21:08:48.624Z,10.23
2017-07-10T21:11:17.923Z,10.13
2017-07-10T21:13:47.503Z,10.17
2017-07-10T21:16:17.285Z,9.27
2017-07-10T21:18:46.913Z,8.17
2017-07-10T21:21:16.386Z,9.73
2017-07-10T21:23:45.849Z,10.67
2017-07-10T21:26:15.666Z,9.33
2017-07-10T21:28:45.396Z,10.13
2017-07-10T21:31:15.091Z,8.57
2017-07-10T21:33:44.563Z,8.63
2017-07-10T21:36:14.392Z,6.90
2017-07-10T21:38:44.163Z,8.60
2017-07-10T21:41:13.974Z,8.87
2017-07-10T21:43:43.514Z,7.00
2017-07-10T21:46:13.012Z,10.13
2017-07-10T21:48:42.701Z,9.90
2017-07-10T21:51:12.439Z,9.70
2017-07-10T21:53:42.008Z,9.70
2017-07-10T21:56:11.622Z,9.87
2017-07-10T21:58:41.073Z,9.70
2017-07-10T22:01:10.598Z,9.43
2017-07-10T22:03:40.293Z,11.03
2017-07-10T22:06:09.762Z,10.30
2017-07-10T22:08:40.279Z,9.20
2017-07-10T22:11:09.987Z,9.87
2017-07-10T22:13:39.423Z,11.30
2017-07-10T22:16:08.878Z,9.60
2017-07-10T22:18:38.358Z,9.50
2017-07-10T22:21:07.815Z,8.47
2017-07-10T22:23:37.299Z,8.10
2017-07-10T22:26:06.758Z,7.50
2017-07-10T22:28:36.213Z,7.83
2017-07-10T22:31:05.647Z,7.40
2017-07-10T22:33:35.099Z,7.77
2017-07-10T22:36:04.542Z,8.63
2017-07-10T22:38:33.983Z,6.90
2017-07-10T22:41:03.433Z,8.77
2017-07-10T22:43:32.886Z,7.37
2017-07-10T22:46:02.362Z,8.27
2017-07-10T22:48:31.822Z,7.40
2017-07-10T22:51:01.266Z,7.43
2017-07-10T22:53:30.706Z,7.90
2017-07-10T22:56:00.185Z,7.80
2017-07-10T22:58:29.629Z,8.00
2017-07-10T23:00:59.077Z,7.23
2017-07-10T23:03:28.536Z,6.90
2017-07-10T23:05:57.989Z,7.23
2017-07-10T23:08:27.451Z,7.77
2017-07-10T23:10:56.931Z,7.77
2017-07-10T23:13:26.373Z,8.07
2017-07-10T23:15:55.832Z,8.40
2017-07-10T23:18:25.284Z,7.13
2017-07-10T23:20:54.735Z,6.47
2017-07-10T23:23:24.210Z,7.10
2017-07-10T23:25:53.650Z,6.40
2017-07-10T23:28:23.089Z,6.03
2017-07-10T23:30:52.548Z,6.40
2017-07-10T23:33:22.028Z,5.90
2017-07-10T23:35:51.471Z,6.97
2017-07-10T23:38:20.910Z,4.93
2017-07-10T23:40:50.365Z,5.73
2017-07-10T23:43:19.820Z,5.90
2017-07-10T23:45:50.209Z,5.90
2017-07-10T23:48:19.648Z,6.07
2017-07-10T23:50:49.103Z,5.43
2017-07-10T23:53:18.546Z,5.30
2017-07-10T23:55:47.997Z,5.53
2017-07-10T23:58:17.453Z,5.80
